createdAt,value
2022-10-22T00:00:15.492Z,100.00
2022-10-22T00:02:43.322Z,100.00
2022-10-22T00:05:10.745Z,100.00
2022-10-22T00:07:38.580Z,100.00
2022-10-22T00:10:06.747Z,100.00
2022-10-22T00:12:34.219Z,100.00
2022-10-22T00:15:01.662Z,100.00
2022-10-22T00:17:29.012Z,100.00
2022-10-22T00:19:56.507Z,100.00
2022-10-22T00:22:24.937Z,100.00
2022-10-22T00:24:52.307Z,100.00
2022-10-22T00:27:19.608Z,100.00
2022-10-22T00:29:47.952Z,100.00
2022-10-22T00:32:15.528Z,100.00
2022-10-22T00:34:43.035Z,100.00
2022-10-22T00:37:10.580Z,100.00
2022-10-22T00:39:38.057Z,100.00
2022-10-22T00:42:05.833Z,100.00
2022-10-22T00:45:02.719Z,100.00
2022-10-22T00:47:37.475Z,100.00
2022-10-22T00:50:09.429Z,100.00
2022-10-22T00:52:37.837Z,100.00
2022-10-22T00:55:05.594Z,100.00
2022-10-22T00:57:34.092Z,100.00
2022-10-22T01:00:01.715Z,100.00
2022-10-22T01:02:29.100Z,100.00
2022-10-22T01:04:56.507Z,100.00
2022-10-22T01:07:24.147Z,100.00
2022-10-22T01:09:57.726Z,100.00
2022-10-22T01:12:27.754Z,100.00
2022-10-22T01:15:13.740Z,100.00
2022-10-22T01:17:43.833Z,100.00
2022-10-22T01:20:17.370Z,100.00
2022-10-22T01:22:45.003Z,100.00
2022-10-22T01:25:15.282Z,100.00
2022-10-22T01:27:53.354Z,100.00
2022-10-22T01:30:20.863Z,100.00
2022-10-22T01:32:59.486Z,100.00
2022-10-22T01:35:27.868Z,100.00
2022-10-22T01:37:58.836Z,100.00
2022-10-22T01:40:27.745Z,100.00
2022-10-22T01:42:57.106Z,100.00
2022-10-22T01:45:24.680Z,100.00
2022-10-22T01:48:29.415Z,100.00
2022-10-22T01:51:05.726Z,100.00
2022-10-22T01:53:33.491Z,100.00
2022-10-22T01:56:16.594Z,100.00
2022-10-22T01:58:58.824Z,100.00
2022-10-22T02:01:27.240Z,100.00
2022-10-22T02:04:03.804Z,100.00
2022-10-22T02:06:31.370Z,100.00
2022-10-22T02:08:58.812Z,100.00
2022-10-22T02:11:26.624Z,100.00
2022-10-22T02:13:55.030Z,100.00
2022-10-22T02:16:27.366Z,100.00
2022-10-22T02:18:55.990Z,100.00
2022-10-22T02:21:23.309Z,100.00
2022-10-22T02:23:50.659Z,100.00
2022-10-22T02:26:38.239Z,100.00
2022-10-22T02:29:07.064Z,100.00
2022-10-22T02:31:36.167Z,100.00
2022-10-22T02:34:05.512Z,100.00
2022-10-22T02:36:33.539Z,100.00
2022-10-22T02:39:00.835Z,100.00
2022-10-22T02:41:28.229Z,100.00
2022-10-22T02:43:56.058Z,100.00
2022-10-22T02:46:23.965Z,100.00
2022-10-22T02:48:51.255Z,100.00
2022-10-22T02:51:18.816Z,100.00
2022-10-22T02:53:46.425Z,100.00
2022-10-22T02:56:14.487Z,100.00
2022-10-22T02:58:41.975Z,100.00
2022-10-22T03:01:11.265Z,100.00
2022-10-22T03:03:41.291Z,100.00
2022-10-22T03:06:09.748Z,100.00
2022-10-22T03:08:37.587Z,100.00
2022-10-22T03:11:05.177Z,100.00
2022-10-22T03:13:33.926Z,100.00
2022-10-22T03:16:01.474Z,100.00
2022-10-22T03:18:29.101Z,100.00
2022-10-22T03:21:06.340Z,100.00
2022-10-22T03:23:33.764Z,100.00
2022-10-22T03:26:01.129Z,100.00
2022-10-22T03:28:28.664Z,100.00
2022-10-22T03:30:56.148Z,100.00
2022-10-22T03:33:23.467Z,100.00
2022-10-22T03:35:50.847Z,100.00
2022-10-22T03:38:18.220Z,100.00
2022-10-22T03:40:45.554Z,100.00
2022-10-22T03:43:12.981Z,100.00
2022-10-22T03:45:40.255Z,100.00
2022-10-22T03:48:07.601Z,100.00
2022-10-22T03:50:35.171Z,100.00
2022-10-22T03:53:02.742Z,100.00
2022-10-22T03:55:30.603Z,100.00
2022-10-22T03:57:57.940Z,100.00
2022-10-22T04:00:25.324Z,100.00
2022-10-22T04:02:53.228Z,100.00
2022-10-22T04:05:21.209Z,100.00
2022-10-22T04:07:48.514Z,100.00
2022-10-22T04:10:16.562Z,100.00
2022-10-22T04:12:47.379Z,100.00
2022-10-22T04:15:14.862Z,100.00
2022-10-22T04:17:43.149Z,100.00
2022-10-22T04:20:13.851Z,100.00
2022-10-22T04:22:42.730Z,100.00
2022-10-22T04:25:10.194Z,100.00
2022-10-22T04:27:37.722Z,100.00
2022-10-22T04:30:06.779Z,100.00
2022-10-22T04:32:34.211Z,100.00
2022-10-22T04:35:02.025Z,100.00
2022-10-22T04:37:29.575Z,100.00
2022-10-22T04:39:58.246Z,100.00
2022-10-22T04:42:26.188Z,100.00
2022-10-22T04:44:53.713Z,100.00
2022-10-22T04:47:21.198Z,100.00
2022-10-22T04:49:48.867Z,100.00
2022-10-22T04:52:16.336Z,100.00
2022-10-22T04:54:44.222Z,100.00
2022-10-22T04:57:11.759Z,100.00
2022-10-22T04:59:39.554Z,100.00
2022-10-22T05:02:07.050Z,100.00
2022-10-22T05:04:34.478Z,100.00
2022-10-22T05:07:01.849Z,100.00
2022-10-22T05:09:29.172Z,100.00
2022-10-22T05:11:56.652Z,100.00
2022-10-22T05:14:24.631Z,100.00
2022-10-22T05:16:53.685Z,100.00
2022-10-22T05:19:25.061Z,100.00
2022-10-22T05:21:56.682Z,100.00
2022-10-22T05:24:24.644Z,100.00
2022-10-22T05:26:52.366Z,100.00
2022-10-22T05:29:20.312Z,100.00
2022-10-22T05:31:47.610Z,100.00
2022-10-22T05:34:14.913Z,100.00
2022-10-22T05:36:42.325Z,100.00
2022-10-22T05:39:09.846Z,100.00
2022-10-22T05:41:37.813Z,100.00
2022-10-22T05:44:05.406Z,100.00
2022-10-22T05:46:36.367Z,100.00
2022-10-22T05:49:04.539Z,100.00
2022-10-22T05:51:32.814Z,100.00
2022-10-22T05:54:01.935Z,100.00
2022-10-22T05:56:30.113Z,100.00
2022-10-22T05:58:57.581Z,100.00
2022-10-22T06:01:25.984Z,100.00
2022-10-22T06:03:53.730Z,100.00
2022-10-22T06:06:29.333Z,100.00
2022-10-22T06:08:57.570Z,100.00
2022-10-22T06:11:24.989Z,100.00
2022-10-22T06:13:52.446Z,100.00
2022-10-22T06:16:20.498Z,100.00
2022-10-22T06:18:49.795Z,100.00
2022-10-22T06:21:17.119Z,100.00
2022-10-22T06:23:44.455Z,100.00
2022-10-22T06:26:12.051Z,100.00
2022-10-22T06:28:39.409Z,100.00
2022-10-22T06:31:08.788Z,100.00
2022-10-22T06:33:42.468Z,100.00
2022-10-22T06:36:11.101Z,100.00
2022-10-22T06:38:40.252Z,100.00
2022-10-22T06:41:08.863Z,100.00
2022-10-22T06:43:36.345Z,100.00
2022-10-22T06:46:05.504Z,100.00
2022-10-22T06:48:33.562Z,100.00
2022-10-22T06:51:01.650Z,100.00
2022-10-22T06:53:29.610Z,100.00
2022-10-22T06:55:56.882Z,100.00
2022-10-22T06:58:24.328Z,100.00
2022-10-22T07:01:00.483Z,100.00
2022-10-22T07:03:27.853Z,100.00
2022-10-22T07:05:55.461Z,100.00
2022-10-22T07:08:22.794Z,100.00
2022-10-22T07:10:50.401Z,100.00
2022-10-22T07:13:18.144Z,100.00
2022-10-22T07:15:45.484Z,100.00
2022-10-22T07:18:13.334Z,95.36
2022-10-22T07:20:43.189Z,93.23
2022-10-22T07:23:10.859Z,79.59
2022-10-22T07:25:38.203Z,63.36
2022-10-22T07:28:06.108Z,55.08
2022-10-22T07:30:34.351Z,49.97
2022-10-22T07:33:01.776Z,47.74
2022-10-22T07:35:29.262Z,45.94
2022-10-22T07:37:56.572Z,46.73
2022-10-22T07:40:24.042Z,44.58
2022-10-22T07:42:51.461Z,42.13
2022-10-22T07:45:18.753Z,42.90
2022-10-22T07:47:47.336Z,45.66
2022-10-22T07:50:14.942Z,48.45
2022-10-22T07:52:43.002Z,50.31
2022-10-22T07:55:10.695Z,51.88
2022-10-22T15:43:02.408Z,85.36
2022-10-22T15:45:30.456Z,85.20
2022-10-22T15:47:59.549Z,85.43
2022-10-22T15:50:27.141Z,85.61
2022-10-22T15:52:55.410Z,85.79
2022-10-22T15:55:22.816Z,85.82
2022-10-22T15:57:55.177Z,84.48
2022-10-22T16:00:25.163Z,83.83
2022-10-22T16:02:53.803Z,84.55
2022-10-22T16:05:21.151Z,83.69
2022-10-22T16:07:48.614Z,84.48
2022-10-22T16:10:16.291Z,83.61
2022-10-22T16:12:44.240Z,84.16
2022-10-22T16:15:12.006Z,82.00
2022-10-22T16:17:39.570Z,81.73
2022-10-22T16:20:09.477Z,81.28
2022-10-22T16:22:37.629Z,82.03
2022-10-22T16:25:05.264Z,81.56
2022-10-22T16:27:33.054Z,81.47
2022-10-22T16:30:00.410Z,81.46
2022-10-22T16:32:28.060Z,81.79
2022-10-22T16:34:55.492Z,81.82
2022-10-22T16:37:23.286Z,80.95
2022-10-22T16:39:50.735Z,80.87
2022-10-22T16:42:18.271Z,80.71
2022-10-22T16:44:45.692Z,81.56
2022-10-22T16:47:13.074Z,80.79
2022-10-22T16:49:40.800Z,81.26
2022-10-22T16:52:08.267Z,80.66
2022-10-22T16:54:36.237Z,81.18
2022-10-22T16:57:03.660Z,81.02
2022-10-22T16:59:31.143Z,80.97
2022-10-22T17:01:58.679Z,80.54
2022-10-22T17:04:26.458Z,80.58
2022-10-22T17:06:54.117Z,80.51
2022-10-22T17:09:25.551Z,80.69
2022-10-22T17:11:53.347Z,81.10
2022-10-22T17:14:20.941Z,80.91
2022-10-22T17:16:53.688Z,80.49
2022-10-22T17:19:24.196Z,80.82
2022-10-22T17:21:53.609Z,80.61
2022-10-22T17:24:21.014Z,80.90
2022-10-22T17:26:49.384Z,81.52
2022-10-22T17:29:17.005Z,80.89
2022-10-22T17:31:44.844Z,81.72
2022-10-22T17:34:15.070Z,81.57
2022-10-22T17:36:42.828Z,81.27
2022-10-22T17:39:11.186Z,82.03
2022-10-22T17:41:39.850Z,82.15
2022-10-22T17:44:09.475Z,81.58
2022-10-22T17:46:37.450Z,81.52
2022-10-22T17:49:07.080Z,82.93
2022-10-22T17:51:34.470Z,82.56
2022-10-22T17:54:03.572Z,83.30
2022-10-22T17:56:33.612Z,83.20
2022-10-22T17:59:01.609Z,84.10
2022-10-22T18:01:30.195Z,84.50
2022-10-22T18:04:02.766Z,85.00
2022-10-22T18:06:30.936Z,85.72
2022-10-22T18:08:59.060Z,86.80
2022-10-22T18:11:27.226Z,88.20
2022-10-22T18:13:56.373Z,88.98
2022-10-22T18:16:25.378Z,89.65
2022-10-22T18:18:53.799Z,90.61
2022-10-22T18:21:22.470Z,91.19
2022-10-22T18:23:50.248Z,92.72
2022-10-22T18:26:20.232Z,93.16
2022-10-22T18:28:50.269Z,94.82
2022-10-22T18:31:18.719Z,95.54
2022-10-22T18:33:46.137Z,96.49
2022-10-22T18:36:19.353Z,95.83
2022-10-22T18:38:53.603Z,96.48
2022-10-22T18:41:21.629Z,97.61
2022-10-22T18:43:52.341Z,98.82
2022-10-22T18:46:24.205Z,99.25
2022-10-22T18:48:52.953Z,100.00
2022-10-22T18:51:20.358Z,100.00
2022-10-22T18:53:59.051Z,100.00
2022-10-22T18:56:34.681Z,100.00
2022-10-22T18:59:02.327Z,100.00
2022-10-22T19:01:29.975Z,100.00
2022-10-22T19:03:59.487Z,100.00
2022-10-22T19:06:31.989Z,100.00
2022-10-22T19:09:00.970Z,100.00
2022-10-22T19:11:29.122Z,100.00
2022-10-22T19:13:57.283Z,100.00
2022-10-22T19:16:26.862Z,100.00
2022-10-22T19:19:02.457Z,100.00
2022-10-22T19:21:30.538Z,100.00
2022-10-22T19:23:59.385Z,100.00
2022-10-22T19:26:29.731Z,100.00
2022-10-22T19:29:08.424Z,100.00
2022-10-22T19:31:37.206Z,100.00
2022-10-22T19:34:06.951Z,100.00
2022-10-22T19:36:35.680Z,100.00
2022-10-22T19:39:03.483Z,100.00
2022-10-22T19:41:31.016Z,100.00
2022-10-22T19:43:58.903Z,100.00
2022-10-22T19:46:26.421Z,100.00
2022-10-22T19:48:54.355Z,100.00
2022-10-22T19:51:22.480Z,100.00
2022-10-22T19:53:50.345Z,100.00
2022-10-22T19:56:20.295Z,100.00
2022-10-22T19:58:48.628Z,100.00
2022-10-22T20:01:16.767Z,100.00
2022-10-22T20:03:44.279Z,100.00
2022-10-22T20:06:12.172Z,100.00
2022-10-22T20:08:39.725Z,100.00
2022-10-22T20:11:13.168Z,100.00
2022-10-22T20:13:40.645Z,100.00
2022-10-22T20:16:17.307Z,100.00
2022-10-22T20:18:45.084Z,100.00
2022-10-22T20:21:13.924Z,100.00
2022-10-22T20:23:44.201Z,100.00
2022-10-22T20:26:12.829Z,100.00
2022-10-22T20:28:40.786Z,100.00
2022-10-22T20:31:11.716Z,100.00
2022-10-22T20:33:39.685Z,100.00
2022-10-22T20:36:08.212Z,100.00
2022-10-22T20:41:08.990Z,100.00
2022-10-22T20:43:36.373Z,100.00
2022-10-22T20:46:04.053Z,100.00
2022-10-22T20:48:31.959Z,100.00
2022-10-22T20:50:59.849Z,100.00
2022-10-22T20:53:27.709Z,100.00
2022-10-22T20:55:57.120Z,100.00
2022-10-22T20:58:26.877Z,100.00
2022-10-22T21:00:54.575Z,100.00
2022-10-22T21:03:22.277Z,100.00
2022-10-22T21:05:49.873Z,100.00
2022-10-22T21:08:17.819Z,100.00
2022-10-22T21:10:46.550Z,100.00
2022-10-22T21:13:15.220Z,100.00
2022-10-22T21:15:42.967Z,100.00
2022-10-22T21:18:10.469Z,100.00
2022-10-22T21:20:40.943Z,100.00
2022-10-22T21:23:08.284Z,100.00
2022-10-22T21:25:39.497Z,100.00
2022-10-22T21:28:09.652Z,100.00
2022-10-22T21:30:37.214Z,100.00
2022-10-22T21:33:04.555Z,100.00
2022-10-22T21:35:33.779Z,100.00
2022-10-22T21:38:01.225Z,100.00
2022-10-22T21:40:28.834Z,100.00
2022-10-22T21:42:57.729Z,100.00
2022-10-22T21:45:25.095Z,100.00
2022-10-22T21:47:52.405Z,100.00
2022-10-22T21:50:19.823Z,100.00
2022-10-22T21:52:47.277Z,100.00
2022-10-22T21:55:14.768Z,100.00
2022-10-22T21:57:44.111Z,100.00
2022-10-22T22:00:11.925Z,100.00
2022-10-22T22:02:46.488Z,100.00
2022-10-22T22:05:13.932Z,100.00
2022-10-22T22:07:41.405Z,100.00
2022-10-22T22:10:13.139Z,100.00
2022-10-22T22:12:41.679Z,100.00
2022-10-22T22:15:09.896Z,100.00
2022-10-22T22:17:37.410Z,100.00
2022-10-22T22:20:10.177Z,100.00
2022-10-22T22:22:38.095Z,100.00
2022-10-22T22:25:05.497Z,100.00
2022-10-22T22:27:33.163Z,100.00
2022-10-22T22:30:00.621Z,100.00
2022-10-22T22:32:28.015Z,100.00
2022-10-22T22:34:55.315Z,100.00
2022-10-22T22:37:23.186Z,100.00
2022-10-22T22:39:51.072Z,100.00
2022-10-22T22:42:20.830Z,100.00
2022-10-22T22:44:48.282Z,100.00
2022-10-22T22:47:15.739Z,100.00
2022-10-22T22:49:43.537Z,100.00
2022-10-22T22:52:10.993Z,100.00
2022-10-22T22:54:38.787Z,100.00
2022-10-22T22:57:06.318Z,100.00
2022-10-22T22:59:34.051Z,100.00
2022-10-22T23:02:01.858Z,100.00
2022-10-22T23:04:30.291Z,100.00
2022-10-22T23:06:57.744Z,100.00
2022-10-22T23:09:25.541Z,100.00
2022-10-22T23:11:54.306Z,100.00
2022-10-22T23:14:22.115Z,100.00
2022-10-22T23:16:50.952Z,100.00
2022-10-22T23:19:22.174Z,100.00
2022-10-22T23:21:51.112Z,100.00
2022-10-22T23:24:19.750Z,100.00
2022-10-22T23:26:47.784Z,100.00
2022-10-22T23:29:26.427Z,100.00
2022-10-22T23:31:55.638Z,100.00
2022-10-22T23:34:24.263Z,100.00
2022-10-22T23:36:51.753Z,100.00
2022-10-22T23:39:20.201Z,100.00
2022-10-22T23:41:48.520Z,100.00
2022-10-22T23:44:16.237Z,100.00
2022-10-22T23:46:43.795Z,100.00
2022-10-22T23:49:11.883Z,100.00
2022-10-22T23:51:39.590Z,100.00
2022-10-22T23:54:13.952Z,100.00
2022-10-22T23:56:42.993Z,100.00
2022-10-22T23:59:10.525Z,100.00
